Airfield :
LOGIN :

Register | Disclaimer

   EN    FR    IT 

 










Legend :    VFR   Marginal VFR   IFR   Intensive IFR   Very Intensive IFR
Visi :
Ceiling :
>= 8 km
>= 3000ft
5 to 8 km
1000 to 3000 ft
1500m to 5 km
500 to 1000 ft
800 to 1500m
200 to 500 ft
< 800m
< 200 ft
Symbols :   Thunderstorms  Fog  Heavy snow  Heavy precipitations  Wind > 20 kt
SIGMETs :     Misc.  Thunderstorms  Icing  Turbulence  Mountain Waves  Volcanic Ashes






- Airport Elevation : 526 ft
- IATA code : LTN


EGGW - London Luton

CURRENT METAR :
  • 210150Z AUTO 16007KT 9999 OVC008 14/13 Q0998

EXPIRED METARs :
  • 210120Z AUTO 15007KT 9999 OVC009 14/13 Q0999
  • 210050Z AUTO 15007KT 9999 OVC010 14/13 Q0999
  • 210020Z AUTO 15007KT 9999 BKN009 14/13 Q0999
  • 202350Z AUTO 14008KT 9999 OVC010 14/13 Q0999
  • 202320Z AUTO 15007KT 9999 SCT012 OVC046 14/13 Q1000

TAF TAF EGGW
Valid from the 21 at 00:00 until the 22 at 00:00 UTC


202257Z 2100/2124 14012KT 9999 BKN012
BECMG 2100/2103 8000 -RA BKN009
TEMPO 2101/2115 4000 RADZ +RA BKN003
PROB30
TEMPO 2103/2111 1200 BR BKN001
BECMG 2109/2112 22010KT
BECMG 2114/2117 9999 NSW SCT015
TEMPO 2115/2124 23015G25KT
PROB40
TEMPO 2117/2124 7000 SHRA BKN012
ATIS : +44 1582 395 204



MET'MAP, your aeronautical weather chart ! - Copyright ORBIFLY December 2007 - Disclaimer

ORBIFLY MET'MAP TEAM :

Programming & Development : Alexandra Zaïnal
Concept & original design : Baudouin d'Aumeries
Assistance for programming : Marc-Olivier Méhu
Technical & hardware support : Manuel Goepfert

Contact : metmap@orbifly.com




SOURCES & CREDITS :

   NOAA